sensor_id;sensor_type;location;lat;lon;timestamp;temperature;humidity
15916;DHT22;8057;47.830;-3.870;2023-06-24T08:42:09;23.60;99.90
15916;DHT22;8057;47.830;-3.870;2023-06-24T14:10:54;28.50;99.90
15916;DHT22;8057;47.830;-3.870;2023-06-24T14:42:54;28.60;99.90
15916;DHT22;8057;47.830;-3.870;2023-06-24T14:47:24;28.70;99.90
15916;DHT22;8057;47.830;-3.870;2023-06-24T14:56:29;28.60;99.90
15916;DHT22;8057;47.830;-3.870;2023-06-24T15:01:01;28.70;99.90
15916;DHT22;8057;47.830;-3.870;2023-06-24T16:43:21;27.30;99.90
15916;DHT22;8057;47.830;-3.870;2023-06-24T16:57:12;27.50;99.90
15916;DHT22;8057;47.830;-3.870;2023-06-24T17:01:45;27.50;99.90
15916;DHT22;8057;47.830;-3.870;2023-06-24T17:06:05;27.30;99.90
15916;DHT22;8057;47.830;-3.870;2023-06-24T17:10:15;27.30;99.90
15916;DHT22;8057;47.830;-3.870;2023-06-24T17:14:52;27.30;99.90
15916;DHT22;8057;47.830;-3.870;2023-06-24T17:19:04;27.40;99.90
15916;DHT22;8057;47.830;-3.870;2023-06-24T17:23:15;27.30;99.90
15916;DHT22;8057;47.830;-3.870;2023-06-24T17:27:24;27.50;99.90
15916;DHT22;8057;47.830;-3.870;2023-06-24T17:31:33;27.40;99.90
15916;DHT22;8057;47.830;-3.870;2023-06-24T17:35:45;27.40;99.90
15916;DHT22;8057;47.830;-3.870;2023-06-24T17:39:55;27.30;99.90
15916;DHT22;8057;47.830;-3.870;2023-06-24T17:44:07;27.10;99.90
15916;DHT22;8057;47.830;-3.870;2023-06-24T17:48:18;27.10;99.90
15916;DHT22;8057;47.830;-3.870;2023-06-24T17:52:31;27.10;99.90
15916;DHT22;8057;47.830;-3.870;2023-06-24T17:56:41;27.30;99.90
15916;DHT22;8057;47.830;-3.870;2023-06-24T18:00:51;27.00;99.90
15916;DHT22;8057;47.830;-3.870;2023-06-24T18:05:01;26.90;99.90
15916;DHT22;8057;47.830;-3.870;2023-06-24T18:09:14;26.90;99.90
15916;DHT22;8057;47.830;-3.870;2023-06-24T18:13:25;26.90;99.90
15916;DHT22;8057;47.830;-3.870;2023-06-24T18:17:35;26.60;99.90
15916;DHT22;8057;47.830;-3.870;2023-06-24T18:21:44;26.60;99.90
15916;DHT22;8057;47.830;-3.870;2023-06-24T18:25:56;26.60;99.90
15916;DHT22;8057;47.830;-3.870;2023-06-24T18:30:08;26.60;99.90
15916;DHT22;8057;47.830;-3.870;2023-06-24T18:34:18;26.50;99.90
15916;DHT22;8057;47.830;-3.870;2023-06-24T18:38:28;26.40;99.90
15916;DHT22;8057;47.830;-3.870;2023-06-24T18:42:40;26.10;99.90
15916;DHT22;8057;47.830;-3.870;2023-06-24T18:46:49;25.90;99.90
15916;DHT22;8057;47.830;-3.870;2023-06-24T18:51:00;25.60;99.90
15916;DHT22;8057;47.830;-3.870;2023-06-24T18:55:09;25.50;99.90
15916;DHT22;8057;47.830;-3.870;2023-06-24T18:59:21;25.60;99.90
15916;DHT22;8057;47.830;-3.870;2023-06-24T19:03:32;25.40;99.90
15916;DHT22;8057;47.830;-3.870;2023-06-24T19:07:41;25.10;99.90
15916;DHT22;8057;47.830;-3.870;2023-06-24T19:11:52;25.10;99.90
15916;DHT22;8057;47.830;-3.870;2023-06-24T19:16:04;25.00;99.90
15916;DHT22;8057;47.830;-3.870;2023-06-24T19:20:14;24.80;99.90
15916;DHT22;8057;47.830;-3.870;2023-06-24T19:24:25;24.60;99.90
15916;DHT22;8057;47.830;-3.870;2023-06-24T19:28:35;24.50;99.90
15916;DHT22;8057;47.830;-3.870;2023-06-24T19:32:47;24.40;99.90
15916;DHT22;8057;47.830;-3.870;2023-06-24T19:37:12;24.30;99.90
15916;DHT22;8057;47.830;-3.870;2023-06-24T19:41:22;24.10;99.90
15916;DHT22;8057;47.830;-3.870;2023-06-24T19:49:55;23.60;99.90
15916;DHT22;8057;47.830;-3.870;2023-06-24T20:10:21;23.10;99.90
15916;DHT22;8057;47.830;-3.870;2023-06-24T20:15:14;22.80;99.90
15916;DHT22;8057;47.830;-3.870;2023-06-24T20:19:26;22.60;99.90
15916;DHT22;8057;47.830;-3.870;2023-06-24T20:23:59;22.50;99.90
15916;DHT22;8057;47.830;-3.870;2023-06-24T20:28:34;22.40;99.90
15916;DHT22;8057;47.830;-3.870;2023-06-24T20:33:23;22.20;99.90
15916;DHT22;8057;47.830;-3.870;2023-06-24T20:38:03;21.90;99.90
15916;DHT22;8057;47.830;-3.870;2023-06-24T20:42:13;21.70;99.90
15916;DHT22;8057;47.830;-3.870;2023-06-24T20:46:30;21.50;99.90
15916;DHT22;8057;47.830;-3.870;2023-06-24T20:50:40;21.30;99.90
15916;DHT22;8057;47.830;-3.870;2023-06-24T20:54:50;21.20;99.90
15916;DHT22;8057;47.830;-3.870;2023-06-24T20:59:00;21.20;99.90
15916;DHT22;8057;47.830;-3.870;2023-06-24T21:03:11;21.10;99.90
15916;DHT22;8057;47.830;-3.870;2023-06-24T21:07:21;20.90;99.90
15916;DHT22;8057;47.830;-3.870;2023-06-24T21:11:30;20.80;99.90
15916;DHT22;8057;47.830;-3.870;2023-06-24T21:15:39;20.70;99.90
15916;DHT22;8057;47.830;-3.870;2023-06-24T21:19:51;20.70;99.90
15916;DHT22;8057;47.830;-3.870;2023-06-24T21:24:08;20.60;99.90
15916;DHT22;8057;47.830;-3.870;2023-06-24T21:28:18;20.30;99.90
15916;DHT22;8057;47.830;-3.870;2023-06-24T21:32:30;20.10;99.90
15916;DHT22;8057;47.830;-3.870;2023-06-24T21:36:51;20.00;99.90
15916;DHT22;8057;47.830;-3.870;2023-06-24T21:41:04;19.80;99.90
15916;DHT22;8057;47.830;-3.870;2023-06-24T21:45:14;19.80;99.90
15916;DHT22;8057;47.830;-3.870;2023-06-24T21:49:23;19.80;99.90
15916;DHT22;8057;47.830;-3.870;2023-06-24T21:53:35;19.80;99.90
15916;DHT22;8057;47.830;-3.870;2023-06-24T21:57:44;19.70;99.90
15916;DHT22;8057;47.830;-3.870;2023-06-24T22:01:54;19.60;99.90
15916;DHT22;8057;47.830;-3.870;2023-06-24T22:06:04;19.60;99.90
15916;DHT22;8057;47.830;-3.870;2023-06-24T22:10:16;19.50;99.90
15916;DHT22;8057;47.830;-3.870;2023-06-24T22:14:27;19.40;99.90
15916;DHT22;8057;47.830;-3.870;2023-06-24T22:18:41;19.30;99.90
15916;DHT22;8057;47.830;-3.870;2023-06-24T22:23:00;19.30;99.90
15916;DHT22;8057;47.830;-3.870;2023-06-24T22:27:19;19.10;99.90
15916;DHT22;8057;47.830;-3.870;2023-06-24T22:31:39;19.10;99.90
15916;DHT22;8057;47.830;-3.870;2023-06-24T22:35:56;19.00;99.90
15916;DHT22;8057;47.830;-3.870;2023-06-24T22:40:20;19.00;99.90
15916;DHT22;8057;47.830;-3.870;2023-06-24T22:44:54;18.90;99.90
15916;DHT22;8057;47.830;-3.870;2023-06-24T22:49:18;18.80;99.90
15916;DHT22;8057;47.830;-3.870;2023-06-24T22:54:34;18.90;99.90
15916;DHT22;8057;47.830;-3.870;2023-06-24T22:59:26;18.90;99.90
15916;DHT22;8057;47.830;-3.870;2023-06-24T23:03:59;18.90;99.90
15916;DHT22;8057;47.830;-3.870;2023-06-24T23:08:43;18.90;99.90
15916;DHT22;8057;47.830;-3.870;2023-06-24T23:13:42;19.00;99.90
15916;DHT22;8057;47.830;-3.870;2023-06-24T23:18:11;19.10;99.90
15916;DHT22;8057;47.830;-3.870;2023-06-24T23:22:55;19.00;99.90
15916;DHT22;8057;47.830;-3.870;2023-06-24T23:28:21;19.00;99.90
15916;DHT22;8057;47.830;-3.870;2023-06-24T23:32:52;18.90;99.90
15916;DHT22;8057;47.830;-3.870;2023-06-24T23:37:17;18.80;99.90
15916;DHT22;8057;47.830;-3.870;2023-06-24T23:42:24;18.70;99.90
15916;DHT22;8057;47.830;-3.870;2023-06-24T23:47:00;18.60;99.90
15916;DHT22;8057;47.830;-3.870;2023-06-24T23:51:40;18.60;99.90
15916;DHT22;8057;47.830;-3.870;2023-06-24T23:56:24;18.50;99.90
